sensor_id;sensor_type;location;lat;lon;timestamp;temperature;humidity
420;DHT22;42600;54.408;13.016;2023-05-10T00:01:20;11.50;85.60
420;DHT22;42600;54.408;13.016;2023-05-10T00:03:46;11.40;85.90
420;DHT22;42600;54.408;13.016;2023-05-10T00:06:13;11.40;86.00
420;DHT22;42600;54.408;13.016;2023-05-10T00:08:39;11.40;86.90
420;DHT22;42600;54.408;13.016;2023-05-10T00:11:06;11.40;87.10
420;DHT22;42600;54.408;13.016;2023-05-10T00:13:34;11.40;87.50
420;DHT22;42600;54.408;13.016;2023-05-10T00:16:00;11.40;87.80
420;DHT22;42600;54.408;13.016;2023-05-10T00:18:27;11.40;87.80
420;DHT22;42600;54.408;13.016;2023-05-10T00:20:53;11.30;88.10
420;DHT22;42600;54.408;13.016;2023-05-10T00:23:20;11.30;87.80
420;DHT22;42600;54.408;13.016;2023-05-10T00:25:46;11.30;87.70
420;DHT22;42600;54.408;13.016;2023-05-10T00:28:13;11.30;87.10
420;DHT22;42600;54.408;13.016;2023-05-10T00:30:41;11.20;86.90
420;DHT22;42600;54.408;13.016;2023-05-10T00:33:07;11.20;86.70
420;DHT22;42600;54.408;13.016;2023-05-10T00:35:34;11.20;87.20
420;DHT22;42600;54.408;13.016;2023-05-10T00:38:01;11.20;87.10
420;DHT22;42600;54.408;13.016;2023-05-10T00:40:28;11.20;87.10
420;DHT22;42600;54.408;13.016;2023-05-10T00:42:55;11.10;87.00
420;DHT22;42600;54.408;13.016;2023-05-10T00:45:22;11.10;87.20
420;DHT22;42600;54.408;13.016;2023-05-10T00:47:50;11.10;87.10
420;DHT22;42600;54.408;13.016;2023-05-10T00:50:20;11.10;86.50
420;DHT22;42600;54.408;13.016;2023-05-10T00:52:47;11.10;86.20
420;DHT22;42600;54.408;13.016;2023-05-10T00:55:13;11.10;87.20
420;DHT22;42600;54.408;13.016;2023-05-10T00:57:41;11.10;86.70
420;DHT22;42600;54.408;13.016;2023-05-10T01:00:08;11.10;87.00
420;DHT22;42600;54.408;13.016;2023-05-10T01:02:36;11.10;87.20
420;DHT22;42600;54.408;13.016;2023-05-10T01:05:05;11.00;87.00
420;DHT22;42600;54.408;13.016;2023-05-10T01:07:32;11.00;87.20
420;DHT22;42600;54.408;13.016;2023-05-10T01:09:58;11.00;87.00
420;DHT22;42600;54.408;13.016;2023-05-10T01:12:25;11.00;87.00
420;DHT22;42600;54.408;13.016;2023-05-10T01:14:52;11.00;87.20
420;DHT22;42600;54.408;13.016;2023-05-10T01:17:21;11.00;86.90
420;DHT22;42600;54.408;13.016;2023-05-10T01:19:48;11.00;86.80
420;DHT22;42600;54.408;13.016;2023-05-10T01:25:40;11.00;87.30
420;DHT22;42600;54.408;13.016;2023-05-10T01:28:34;11.00;87.60
420;DHT22;42600;54.408;13.016;2023-05-10T01:31:28;11.00;87.20
420;DHT22;42600;54.408;13.016;2023-05-10T01:34:01;10.90;87.10
420;DHT22;42600;54.408;13.016;2023-05-10T01:36:32;11.00;87.40
420;DHT22;42600;54.408;13.016;2023-05-10T01:39:02;10.90;87.70
420;DHT22;42600;54.408;13.016;2023-05-10T01:41:41;11.00;87.20
420;DHT22;42600;54.408;13.016;2023-05-10T01:44:17;10.90;87.70
420;DHT22;42600;54.408;13.016;2023-05-10T01:46:48;10.90;87.10
420;DHT22;42600;54.408;13.016;2023-05-10T01:49:23;10.90;87.20
420;DHT22;42600;54.408;13.016;2023-05-10T01:51:53;10.90;87.20
420;DHT22;42600;54.408;13.016;2023-05-10T01:54:22;10.90;87.80
420;DHT22;42600;54.408;13.016;2023-05-10T01:56:54;10.90;86.90
420;DHT22;42600;54.408;13.016;2023-05-10T01:59:23;10.90;87.50
420;DHT22;42600;54.408;13.016;2023-05-10T02:01:52;10.90;87.40
420;DHT22;42600;54.408;13.016;2023-05-10T02:04:22;10.90;86.60
420;DHT22;42600;54.408;13.016;2023-05-10T02:06:51;10.90;86.10
420;DHT22;42600;54.408;13.016;2023-05-10T02:09:20;11.00;85.30
420;DHT22;42600;54.408;13.016;2023-05-10T02:11:48;11.00;85.40
420;DHT22;42600;54.408;13.016;2023-05-10T02:14:15;11.00;85.50
420;DHT22;42600;54.408;13.016;2023-05-10T02:16:43;11.00;85.50
420;DHT22;42600;54.408;13.016;2023-05-10T02:19:11;11.00;85.00
420;DHT22;42600;54.408;13.016;2023-05-10T02:21:41;10.90;85.20
420;DHT22;42600;54.408;13.016;2023-05-10T02:24:09;10.90;85.00
420;DHT22;42600;54.408;13.016;2023-05-10T02:26:38;11.00;85.20
420;DHT22;42600;54.408;13.016;2023-05-10T02:29:06;10.90;84.80
420;DHT22;42600;54.408;13.016;2023-05-10T02:31:33;11.00;84.40
420;DHT22;42600;54.408;13.016;2023-05-10T02:34:01;10.90;85.00
420;DHT22;42600;54.408;13.016;2023-05-10T02:36:29;10.90;85.00
420;DHT22;42600;54.408;13.016;2023-05-10T02:38:59;10.90;84.90
420;DHT22;42600;54.408;13.016;2023-05-10T02:41:27;10.90;85.20
420;DHT22;42600;54.408;13.016;2023-05-10T02:43:57;10.90;84.40
420;DHT22;42600;54.408;13.016;2023-05-10T02:46:25;10.90;84.00
420;DHT22;42600;54.408;13.016;2023-05-10T02:48:52;10.90;83.90
420;DHT22;42600;54.408;13.016;2023-05-10T02:51:19;10.90;83.90
420;DHT22;42600;54.408;13.016;2023-05-10T02:53:51;10.90;84.30
420;DHT22;42600;54.408;13.016;2023-05-10T02:56:28;10.90;84.20
420;DHT22;42600;54.408;13.016;2023-05-10T02:58:55;10.90;84.30
420;DHT22;42600;54.408;13.016;2023-05-10T03:01:22;10.90;84.90
420;DHT22;42600;54.408;13.016;2023-05-10T03:03:49;10.90;84.30
420;DHT22;42600;54.408;13.016;2023-05-10T03:06:15;10.90;84.70
420;DHT22;42600;54.408;13.016;2023-05-10T03:08:43;10.90;84.80
420;DHT22;42600;54.408;13.016;2023-05-10T03:11:23;10.90;84.70
420;DHT22;42600;54.408;13.016;2023-05-10T03:14:01;10.80;84.70
420;DHT22;42600;54.408;13.016;2023-05-10T03:16:37;10.80;84.70
420;DHT22;42600;54.408;13.016;2023-05-10T03:19:10;10.80;84.30
420;DHT22;42600;54.408;13.016;2023-05-10T03:21:41;10.90;84.60
420;DHT22;42600;54.408;13.016;2023-05-10T03:24:12;10.90;84.80
420;DHT22;42600;54.408;13.016;2023-05-10T03:26:43;10.90;84.10
420;DHT22;42600;54.408;13.016;2023-05-10T03:29:11;10.90;83.90
420;DHT22;42600;54.408;13.016;2023-05-10T03:31:39;10.90;84.30
420;DHT22;42600;54.408;13.016;2023-05-10T03:34:05;10.90;84.10
420;DHT22;42600;54.408;13.016;2023-05-10T03:36:32;11.00;84.40
420;DHT22;42600;54.408;13.016;2023-05-10T03:38:59;11.00;84.40
420;DHT22;42600;54.408;13.016;2023-05-10T03:41:26;11.00;85.00
420;DHT22;42600;54.408;13.016;2023-05-10T03:43:54;11.00;85.10
420;DHT22;42600;54.408;13.016;2023-05-10T03:46:20;11.00;85.00
420;DHT22;42600;54.408;13.016;2023-05-10T03:48:47;10.90;84.90
420;DHT22;42600;54.408;13.016;2023-05-10T03:51:13;10.90;85.40
420;DHT22;42600;54.408;13.016;2023-05-10T03:53:40;10.90;84.40
420;DHT22;42600;54.408;13.016;2023-05-10T03:56:07;11.00;84.10
420;DHT22;42600;54.408;13.016;2023-05-10T03:58:33;11.10;83.70
420;DHT22;42600;54.408;13.016;2023-05-10T04:01:01;11.20;83.60
420;DHT22;42600;54.408;13.016;2023-05-10T04:03:27;11.20;83.30
420;DHT22;42600;54.408;13.016;2023-05-10T04:05:59;11.30;82.90
420;DHT22;42600;54.408;13.016;2023-05-10T04:08:26;11.40;82.50
420;DHT22;42600;54.408;13.016;2023-05-10T04:10:53;11.50;82.60
420;DHT22;42600;54.408;13.016;2023-05-10T04:13:20;11.50;82.50
420;DHT22;42600;54.408;13.016;2023-05-10T04:15:46;11.50;82.00
420;DHT22;42600;54.408;13.016;2023-05-10T04:18:14;11.60;81.50
420;DHT22;42600;54.408;13.016;2023-05-10T04:20:41;11.60;82.40
420;DHT22;42600;54.408;13.016;2023-05-10T04:23:07;11.70;81.90
420;DHT22;42600;54.408;13.016;2023-05-10T04:25:34;11.80;82.30
420;DHT22;42600;54.408;13.016;2023-05-10T04:28:01;11.80;82.40
420;DHT22;42600;54.408;13.016;2023-05-10T04:30:27;11.90;83.00
420;DHT22;42600;54.408;13.016;2023-05-10T04:32:54;12.00;81.80
420;DHT22;42600;54.408;13.016;2023-05-10T04:35:22;12.00;82.60
420;DHT22;42600;54.408;13.016;2023-05-10T04:37:49;12.10;81.40
420;DHT22;42600;54.408;13.016;2023-05-10T04:40:15;12.10;80.20
420;DHT22;42600;54.408;13.016;2023-05-10T04:42:43;12.20;79.10
420;DHT22;42600;54.408;13.016;2023-05-10T04:45:10;12.20;80.00
420;DHT22;42600;54.408;13.016;2023-05-10T04:47:37;12.20;79.10
420;DHT22;42600;54.408;13.016;2023-05-10T04:50:04;12.30;78.40
420;DHT22;42600;54.408;13.016;2023-05-10T04:52:33;12.30;79.50
420;DHT22;42600;54.408;13.016;2023-05-10T04:54:59;12.40;79.60
420;DHT22;42600;54.408;13.016;2023-05-10T04:57:26;12.50;79.40
420;DHT22;42600;54.408;13.016;2023-05-10T04:59:52;12.50;78.50
420;DHT22;42600;54.408;13.016;2023-05-10T05:02:19;12.50;78.60
420;DHT22;42600;54.408;13.016;2023-05-10T05:04:45;12.60;78.40
420;DHT22;42600;54.408;13.016;2023-05-10T05:07:12;12.60;77.90
420;DHT22;42600;54.408;13.016;2023-05-10T05:09:40;12.60;77.40
420;DHT22;42600;54.408;13.016;2023-05-10T05:12:07;12.70;77.80
420;DHT22;42600;54.408;13.016;2023-05-10T05:14:33;12.70;77.40
420;DHT22;42600;54.408;13.016;2023-05-10T05:17:00;12.80;78.40
420;DHT22;42600;54.408;13.016;2023-05-10T05:19:27;12.80;78.10
420;DHT22;42600;54.408;13.016;2023-05-10T05:21:53;12.90;77.80
420;DHT22;42600;54.408;13.016;2023-05-10T05:24:20;13.00;78.00
420;DHT22;42600;54.408;13.016;2023-05-10T05:26:48;13.10;78.50
420;DHT22;42600;54.408;13.016;2023-05-10T05:29:14;13.00;78.60
420;DHT22;42600;54.408;13.016;2023-05-10T05:31:41;13.10;77.90
420;DHT22;42600;54.408;13.016;2023-05-10T05:34:07;13.20;77.40
420;DHT22;42600;54.408;13.016;2023-05-10T05:36:37;13.20;77.00
420;DHT22;42600;54.408;13.016;2023-05-10T05:39:04;13.30;76.20
420;DHT22;42600;54.408;13.016;2023-05-10T05:41:31;13.30;76.40
420;DHT22;42600;54.408;13.016;2023-05-10T05:43:58;13.30;76.30
420;DHT22;42600;54.408;13.016;2023-05-10T05:46:25;13.40;77.60
420;DHT22;42600;54.408;13.016;2023-05-10T05:48:52;13.50;77.00
420;DHT22;42600;54.408;13.016;2023-05-10T05:51:18;13.50;78.20
420;DHT22;42600;54.408;13.016;2023-05-10T05:53:45;13.60;78.00
420;DHT22;42600;54.408;13.016;2023-05-10T05:56:12;13.50;79.20
420;DHT22;42600;54.408;13.016;2023-05-10T05:58:38;13.50;77.20
420;DHT22;42600;54.408;13.016;2023-05-10T06:01:06;13.50;78.20
420;DHT22;42600;54.408;13.016;2023-05-10T06:03:33;13.70;77.80
420;DHT22;42600;54.408;13.016;2023-05-10T06:05:59;13.70;77.00
420;DHT22;42600;54.408;13.016;2023-05-10T06:08:26;13.80;77.50
420;DHT22;42600;54.408;13.016;2023-05-10T06:10:52;13.80;76.90
420;DHT22;42600;54.408;13.016;2023-05-10T06:13:19;13.90;76.40
420;DHT22;42600;54.408;13.016;2023-05-10T06:15:45;14.00;76.80
420;DHT22;42600;54.408;13.016;2023-05-10T06:18:13;14.00;76.30
420;DHT22;42600;54.408;13.016;2023-05-10T06:20:41;14.00;77.90
420;DHT22;42600;54.408;13.016;2023-05-10T06:23:08;14.10;78.00
420;DHT22;42600;54.408;13.016;2023-05-10T06:25:34;14.20;77.10
420;DHT22;42600;54.408;13.016;2023-05-10T06:28:01;14.10;76.10
420;DHT22;42600;54.408;13.016;2023-05-10T06:30:27;14.30;76.30
420;DHT22;42600;54.408;13.016;2023-05-10T06:32:54;14.30;77.40
420;DHT22;42600;54.408;13.016;2023-05-10T06:35:23;14.30;76.50
420;DHT22;42600;54.408;13.016;2023-05-10T06:37:50;14.40;75.60
420;DHT22;42600;54.408;13.016;2023-05-10T06:40:17;14.50;76.30
420;DHT22;42600;54.408;13.016;2023-05-10T06:42:44;14.50;76.20
420;DHT22;42600;54.408;13.016;2023-05-10T06:45:11;14.60;75.40
420;DHT22;42600;54.408;13.016;2023-05-10T06:47:38;14.60;76.20
420;DHT22;42600;54.408;13.016;2023-05-10T06:50:05;14.60;75.80
420;DHT22;42600;54.408;13.016;2023-05-10T06:52:33;14.60;76.90
420;DHT22;42600;54.408;13.016;2023-05-10T06:55:00;14.80;76.40
420;DHT22;42600;54.408;13.016;2023-05-10T06:57:27;14.80;75.80
420;DHT22;42600;54.408;13.016;2023-05-10T06:59:54;14.80;74.90
420;DHT22;42600;54.408;13.016;2023-05-10T07:02:21;14.80;75.50
420;DHT22;42600;54.408;13.016;2023-05-10T07:04:48;14.90;75.10
420;DHT22;42600;54.408;13.016;2023-05-10T07:07:15;15.00;75.50
420;DHT22;42600;54.408;13.016;2023-05-10T07:09:43;15.00;76.20
420;DHT22;42600;54.408;13.016;2023-05-10T07:12:10;15.10;75.90
420;DHT22;42600;54.408;13.016;2023-05-10T07:14:37;15.20;75.60
420;DHT22;42600;54.408;13.016;2023-05-10T07:17:04;15.20;74.80
420;DHT22;42600;54.408;13.016;2023-05-10T07:19:30;15.30;75.80
420;DHT22;42600;54.408;13.016;2023-05-10T07:21:57;15.30;74.90
420;DHT22;42600;54.408;13.016;2023-05-10T07:24:24;15.30;74.50
420;DHT22;42600;54.408;13.016;2023-05-10T07:26:52;15.50;75.50
420;DHT22;42600;54.408;13.016;2023-05-10T07:29:18;15.60;75.10
420;DHT22;42600;54.408;13.016;2023-05-10T07:31:45;15.70;75.10
420;DHT22;42600;54.408;13.016;2023-05-10T07:34:12;15.60;75.30
420;DHT22;42600;54.408;13.016;2023-05-10T07:36:38;15.70;74.20
420;DHT22;42600;54.408;13.016;2023-05-10T07:39:05;15.70;75.30
420;DHT22;42600;54.408;13.016;2023-05-10T07:41:32;15.70;73.50
420;DHT22;42600;54.408;13.016;2023-05-10T07:44:00;15.70;73.40
420;DHT22;42600;54.408;13.016;2023-05-10T07:46:26;15.60;74.30
420;DHT22;42600;54.408;13.016;2023-05-10T07:48:53;15.80;74.60
420;DHT22;42600;54.408;13.016;2023-05-10T07:51:20;15.80;73.50
420;DHT22;42600;54.408;13.016;2023-05-10T07:53:46;15.90;74.70
420;DHT22;42600;54.408;13.016;2023-05-10T07:56:21;16.00;75.10
420;DHT22;42600;54.408;13.016;2023-05-10T07:58:48;16.00;76.40
420;DHT22;42600;54.408;13.016;2023-05-10T08:01:17;16.00;73.70
420;DHT22;42600;54.408;13.016;2023-05-10T08:03:43;16.00;74.80
420;DHT22;42600;54.408;13.016;2023-05-10T08:06:10;16.10;74.10
420;DHT22;42600;54.408;13.016;2023-05-10T08:08:37;16.20;74.30
420;DHT22;42600;54.408;13.016;2023-05-10T08:11:04;16.30;75.30
420;DHT22;42600;54.408;13.016;2023-05-10T08:13:31;16.30;74.90
420;DHT22;42600;54.408;13.016;2023-05-10T08:15:57;16.30;73.70
420;DHT22;42600;54.408;13.016;2023-05-10T08:18:25;16.30;74.30
420;DHT22;42600;54.408;13.016;2023-05-10T08:20:52;16.20;74.70
420;DHT22;42600;54.408;13.016;2023-05-10T08:23:19;16.40;75.00
420;DHT22;42600;54.408;13.016;2023-05-10T08:25:46;16.50;74.20
420;DHT22;42600;54.408;13.016;2023-05-10T08:28:12;16.40;74.50
420;DHT22;42600;54.408;13.016;2023-05-10T08:30:39;16.50;74.40
420;DHT22;42600;54.408;13.016;2023-05-10T08:33:06;16.50;74.10
420;DHT22;42600;54.408;13.016;2023-05-10T08:35:33;16.50;74.10
420;DHT22;42600;54.408;13.016;2023-05-10T08:38:00;16.60;73.30
420;DHT22;42600;54.408;13.016;2023-05-10T08:40:27;16.50;75.50
420;DHT22;42600;54.408;13.016;2023-05-10T08:42:57;16.60;73.80
420;DHT22;42600;54.408;13.016;2023-05-10T08:45:28;16.60;73.90
420;DHT22;42600;54.408;13.016;2023-05-10T08:47:59;16.60;73.30
420;DHT22;42600;54.408;13.016;2023-05-10T08:50:27;16.70;74.00
420;DHT22;42600;54.408;13.016;2023-05-10T08:53:00;16.70;73.20
420;DHT22;42600;54.408;13.016;2023-05-10T08:55:27;16.80;73.70
420;DHT22;42600;54.408;13.016;2023-05-10T08:57:54;17.00;73.50
420;DHT22;42600;54.408;13.016;2023-05-10T09:00:21;16.90;72.60
420;DHT22;42600;54.408;13.016;2023-05-10T09:02:49;17.00;73.00
420;DHT22;42600;54.408;13.016;2023-05-10T09:05:16;17.00;73.30
420;DHT22;42600;54.408;13.016;2023-05-10T09:07:43;17.10;72.70
420;DHT22;42600;54.408;13.016;2023-05-10T09:10:11;17.10;71.60
420;DHT22;42600;54.408;13.016;2023-05-10T09:12:39;17.10;73.10
420;DHT22;42600;54.408;13.016;2023-05-10T09:15:07;17.20;74.00
420;DHT22;42600;54.408;13.016;2023-05-10T09:17:36;17.30;73.50
420;DHT22;42600;54.408;13.016;2023-05-10T09:20:04;17.20;72.50
420;DHT22;42600;54.408;13.016;2023-05-10T09:22:31;17.30;72.50
420;DHT22;42600;54.408;13.016;2023-05-10T09:25:08;17.30;72.40
420;DHT22;42600;54.408;13.016;2023-05-10T09:27:38;17.40;72.80
420;DHT22;42600;54.408;13.016;2023-05-10T09:30:07;17.50;72.80
420;DHT22;42600;54.408;13.016;2023-05-10T09:32:38;17.60;72.00
420;DHT22;42600;54.408;13.016;2023-05-10T09:35:09;17.60;72.10
420;DHT22;42600;54.408;13.016;2023-05-10T09:37:36;17.70;71.50
420;DHT22;42600;54.408;13.016;2023-05-10T09:40:07;17.70;72.60
420;DHT22;42600;54.408;13.016;2023-05-10T09:42:34;17.70;72.50
420;DHT22;42600;54.408;13.016;2023-05-10T09:45:03;17.70;72.30
420;DHT22;42600;54.408;13.016;2023-05-10T09:47:32;17.70;72.80
420;DHT22;42600;54.408;13.016;2023-05-10T09:49:59;17.90;72.40
420;DHT22;42600;54.408;13.016;2023-05-10T09:52:29;17.80;71.20
420;DHT22;42600;54.408;13.016;2023-05-10T09:54:56;17.90;71.30
420;DHT22;42600;54.408;13.016;2023-05-10T09:57:24;17.80;69.70
420;DHT22;42600;54.408;13.016;2023-05-10T09:59:51;17.80;70.90
420;DHT22;42600;54.408;13.016;2023-05-10T10:02:21;18.00;71.40
420;DHT22;42600;54.408;13.016;2023-05-10T10:04:55;18.00;70.00
420;DHT22;42600;54.408;13.016;2023-05-10T10:07:23;18.10;71.40
420;DHT22;42600;54.408;13.016;2023-05-10T10:09:51;18.10;70.80
420;DHT22;42600;54.408;13.016;2023-05-10T10:12:18;18.10;70.20
420;DHT22;42600;54.408;13.016;2023-05-10T10:14:46;18.20;70.30
420;DHT22;42600;54.408;13.016;2023-05-10T10:17:13;18.30;71.70
420;DHT22;42600;54.408;13.016;2023-05-10T10:19:42;18.20;71.30
420;DHT22;42600;54.408;13.016;2023-05-10T10:22:09;18.30;69.60
420;DHT22;42600;54.408;13.016;2023-05-10T10:24:38;18.10;69.40
420;DHT22;42600;54.408;13.016;2023-05-10T10:27:15;18.20;70.20
420;DHT22;42600;54.408;13.016;2023-05-10T10:29:52;18.10;69.30
420;DHT22;42600;54.408;13.016;2023-05-10T10:32:28;18.10;68.80
420;DHT22;42600;54.408;13.016;2023-05-10T10:34:58;18.20;68.80
420;DHT22;42600;54.408;13.016;2023-05-10T10:37:42;18.10;69.40
420;DHT22;42600;54.408;13.016;2023-05-10T10:40:26;18.30;71.40
420;DHT22;42600;54.408;13.016;2023-05-10T10:42:53;18.40;70.20
420;DHT22;42600;54.408;13.016;2023-05-10T10:45:21;18.40;69.50
420;DHT22;42600;54.408;13.016;2023-05-10T10:47:48;18.40;69.90
420;DHT22;42600;54.408;13.016;2023-05-10T10:50:16;18.50;70.80
420;DHT22;42600;54.408;13.016;2023-05-10T10:52:43;18.50;70.70
420;DHT22;42600;54.408;13.016;2023-05-10T10:55:11;18.60;70.70
420;DHT22;42600;54.408;13.016;2023-05-10T10:57:47;18.70;70.90
420;DHT22;42600;54.408;13.016;2023-05-10T11:00:28;18.80;70.60
420;DHT22;42600;54.408;13.016;2023-05-10T11:03:03;18.80;69.20
420;DHT22;42600;54.408;13.016;2023-05-10T11:05:42;18.80;69.60
420;DHT22;42600;54.408;13.016;2023-05-10T11:08:14;19.00;69.90
420;DHT22;42600;54.408;13.016;2023-05-10T11:10:51;19.10;69.90
420;DHT22;42600;54.408;13.016;2023-05-10T11:13:27;19.10;69.20
420;DHT22;42600;54.408;13.016;2023-05-10T11:15:55;19.20;68.90
420;DHT22;42600;54.408;13.016;2023-05-10T11:18:25;19.20;68.50
420;DHT22;42600;54.408;13.016;2023-05-10T11:20:56;19.20;69.00
420;DHT22;42600;54.408;13.016;2023-05-10T11:23:28;19.10;69.20
420;DHT22;42600;54.408;13.016;2023-05-10T11:25:55;19.20;68.90
420;DHT22;42600;54.408;13.016;2023-05-10T11:28:22;19.40;69.20
420;DHT22;42600;54.408;13.016;2023-05-10T11:30:50;19.40;70.90
420;DHT22;42600;54.408;13.016;2023-05-10T11:33:20;19.50;70.10
420;DHT22;42600;54.408;13.016;2023-05-10T11:35:47;19.50;68.20
420;DHT22;42600;54.408;13.016;2023-05-10T11:38:15;19.50;65.90
420;DHT22;42600;54.408;13.016;2023-05-10T11:40:42;19.70;65.30
420;DHT22;42600;54.408;13.016;2023-05-10T11:43:09;19.70;64.90
420;DHT22;42600;54.408;13.016;2023-05-10T11:45:37;19.90;64.70
420;DHT22;42600;54.408;13.016;2023-05-10T11:48:04;20.00;64.80
420;DHT22;42600;54.408;13.016;2023-05-10T11:50:31;20.00;64.10
420;DHT22;42600;54.408;13.016;2023-05-10T11:52:57;20.00;63.20
420;DHT22;42600;54.408;13.016;2023-05-10T11:55:26;20.10;63.50
420;DHT22;42600;54.408;13.016;2023-05-10T11:57:55;20.20;61.90
420;DHT22;42600;54.408;13.016;2023-05-10T12:00:26;20.20;63.90
420;DHT22;42600;54.408;13.016;2023-05-10T12:02:53;20.20;62.30
420;DHT22;42600;54.408;13.016;2023-05-10T12:05:19;20.40;64.30
420;DHT22;42600;54.408;13.016;2023-05-10T12:07:46;20.50;61.00
420;DHT22;42600;54.408;13.016;2023-05-10T12:10:13;20.60;58.60
420;DHT22;42600;54.408;13.016;2023-05-10T12:12:44;20.80;60.40
420;DHT22;42600;54.408;13.016;2023-05-10T12:15:12;20.60;59.30
420;DHT22;42600;54.408;13.016;2023-05-10T12:17:39;20.80;59.80
420;DHT22;42600;54.408;13.016;2023-05-10T12:20:17;20.90;60.90
420;DHT22;42600;54.408;13.016;2023-05-10T12:22:45;20.80;58.20
420;DHT22;42600;54.408;13.016;2023-05-10T12:25:12;20.70;58.60
420;DHT22;42600;54.408;13.016;2023-05-10T12:27:38;20.90;58.80
420;DHT22;42600;54.408;13.016;2023-05-10T12:30:08;20.90;56.90
420;DHT22;42600;54.408;13.016;2023-05-10T12:32:38;21.00;58.60
420;DHT22;42600;54.408;13.016;2023-05-10T12:35:06;21.20;58.50
420;DHT22;42600;54.408;13.016;2023-05-10T12:37:33;21.30;59.00
420;DHT22;42600;54.408;13.016;2023-05-10T12:40:05;21.30;59.20
420;DHT22;42600;54.408;13.016;2023-05-10T12:42:33;21.20;58.30
420;DHT22;42600;54.408;13.016;2023-05-10T12:45:01;21.10;58.30
420;DHT22;42600;54.408;13.016;2023-05-10T12:47:29;21.00;58.80
420;DHT22;42600;54.408;13.016;2023-05-10T12:49:56;21.00;58.70
420;DHT22;42600;54.408;13.016;2023-05-10T12:52:22;21.00;57.80
420;DHT22;42600;54.408;13.016;2023-05-10T12:54:49;20.90;58.00
420;DHT22;42600;54.408;13.016;2023-05-10T12:57:16;21.20;58.20
420;DHT22;42600;54.408;13.016;2023-05-10T12:59:42;21.30;59.40
420;DHT22;42600;54.408;13.016;2023-05-10T13:02:09;21.30;58.90
420;DHT22;42600;54.408;13.016;2023-05-10T13:04:37;21.20;58.20
420;DHT22;42600;54.408;13.016;2023-05-10T13:07:05;21.30;57.80
420;DHT22;42600;54.408;13.016;2023-05-10T13:09:32;21.20;57.70
420;DHT22;42600;54.408;13.016;2023-05-10T13:11:58;21.40;58.70
420;DHT22;42600;54.408;13.016;2023-05-10T13:14:25;21.50;58.00
420;DHT22;42600;54.408;13.016;2023-05-10T13:16:52;21.40;55.40
420;DHT22;42600;54.408;13.016;2023-05-10T13:19:19;21.50;56.20
420;DHT22;42600;54.408;13.016;2023-05-10T13:21:47;21.60;54.70
420;DHT22;42600;54.408;13.016;2023-05-10T13:24:14;21.60;56.20
420;DHT22;42600;54.408;13.016;2023-05-10T13:26:40;21.60;55.30
420;DHT22;42600;54.408;13.016;2023-05-10T13:29:07;21.60;56.80
420;DHT22;42600;54.408;13.016;2023-05-10T13:31:34;21.40;55.90
420;DHT22;42600;54.408;13.016;2023-05-10T13:34:02;21.60;57.10
420;DHT22;42600;54.408;13.016;2023-05-10T13:36:28;21.70;56.50
420;DHT22;42600;54.408;13.016;2023-05-10T13:38:57;21.60;58.50
420;DHT22;42600;54.408;13.016;2023-05-10T13:41:23;21.60;57.00
420;DHT22;42600;54.408;13.016;2023-05-10T13:43:50;21.50;57.70
420;DHT22;42600;54.408;13.016;2023-05-10T13:46:17;21.50;56.90
420;DHT22;42600;54.408;13.016;2023-05-10T13:48:44;21.60;56.20
420;DHT22;42600;54.408;13.016;2023-05-10T13:51:10;21.50;54.90
420;DHT22;42600;54.408;13.016;2023-05-10T13:53:38;21.70;55.30
420;DHT22;42600;54.408;13.016;2023-05-10T13:56:06;21.80;55.80
420;DHT22;42600;54.408;13.016;2023-05-10T13:58:32;21.70;54.80
420;DHT22;42600;54.408;13.016;2023-05-10T14:01:01;21.80;56.50
420;DHT22;42600;54.408;13.016;2023-05-10T14:03:27;21.80;55.70
420;DHT22;42600;54.408;13.016;2023-05-10T14:05:54;21.70;55.80
420;DHT22;42600;54.408;13.016;2023-05-10T14:08:20;21.70;56.20
420;DHT22;42600;54.408;13.016;2023-05-10T14:10:48;21.60;56.90
420;DHT22;42600;54.408;13.016;2023-05-10T14:13:17;21.50;57.10
420;DHT22;42600;54.408;13.016;2023-05-10T14:15:43;21.60;57.10
420;DHT22;42600;54.408;13.016;2023-05-10T14:18:10;21.70;56.60
420;DHT22;42600;54.408;13.016;2023-05-10T14:20:37;21.60;57.00
420;DHT22;42600;54.408;13.016;2023-05-10T14:23:03;21.60;57.30
420;DHT22;42600;54.408;13.016;2023-05-10T14:25:30;21.60;57.80
420;DHT22;42600;54.408;13.016;2023-05-10T14:27:56;21.60;58.00
420;DHT22;42600;54.408;13.016;2023-05-10T14:30:24;21.50;58.40
420;DHT22;42600;54.408;13.016;2023-05-10T14:32:51;21.60;59.00
420;DHT22;42600;54.408;13.016;2023-05-10T14:35:19;21.70;58.70
420;DHT22;42600;54.408;13.016;2023-05-10T14:37:46;21.60;58.50
420;DHT22;42600;54.408;13.016;2023-05-10T14:40:13;21.50;59.40
420;DHT22;42600;54.408;13.016;2023-05-10T14:42:40;21.60;58.70
420;DHT22;42600;54.408;13.016;2023-05-10T14:45:09;21.70;58.70
420;DHT22;42600;54.408;13.016;2023-05-10T14:47:37;21.50;59.40
420;DHT22;42600;54.408;13.016;2023-05-10T14:50:05;21.60;59.40
420;DHT22;42600;54.408;13.016;2023-05-10T14:52:31;21.60;58.00
420;DHT22;42600;54.408;13.016;2023-05-10T14:54:58;21.60;59.40
420;DHT22;42600;54.408;13.016;2023-05-10T14:57:26;21.70;58.30
420;DHT22;42600;54.408;13.016;2023-05-10T14:59:54;21.80;58.90
420;DHT22;42600;54.408;13.016;2023-05-10T15:02:21;21.80;58.70
420;DHT22;42600;54.408;13.016;2023-05-10T15:04:49;21.80;60.50
420;DHT22;42600;54.408;13.016;2023-05-10T15:07:16;21.70;59.80
420;DHT22;42600;54.408;13.016;2023-05-10T15:09:43;21.70;58.20
420;DHT22;42600;54.408;13.016;2023-05-10T15:12:10;21.60;57.60
420;DHT22;42600;54.408;13.016;2023-05-10T15:14:37;21.60;58.20
420;DHT22;42600;54.408;13.016;2023-05-10T15:17:05;21.60;56.80
420;DHT22;42600;54.408;13.016;2023-05-10T15:19:32;21.60;58.60
420;DHT22;42600;54.408;13.016;2023-05-10T15:22:00;21.90;60.30
420;DHT22;42600;54.408;13.016;2023-05-10T15:24:27;21.90;57.90
420;DHT22;42600;54.408;13.016;2023-05-10T15:26:54;21.90;57.50
420;DHT22;42600;54.408;13.016;2023-05-10T15:29:21;21.80;55.50
420;DHT22;42600;54.408;13.016;2023-05-10T15:31:48;21.80;57.50
420;DHT22;42600;54.408;13.016;2023-05-10T15:34:16;21.80;55.50
420;DHT22;42600;54.408;13.016;2023-05-10T15:36:43;21.70;55.90
420;DHT22;42600;54.408;13.016;2023-05-10T15:39:11;21.80;56.10
420;DHT22;42600;54.408;13.016;2023-05-10T15:41:38;21.80;57.30
420;DHT22;42600;54.408;13.016;2023-05-10T15:44:04;21.70;57.20
420;DHT22;42600;54.408;13.016;2023-05-10T15:46:31;21.60;58.50
420;DHT22;42600;54.408;13.016;2023-05-10T15:48:58;21.50;57.50
420;DHT22;42600;54.408;13.016;2023-05-10T15:51:24;21.50;59.20
420;DHT22;42600;54.408;13.016;2023-05-10T15:53:51;21.50;59.20